Terminal Aerodrome Forecast
Issued by NWS

Home | Current Version | Previous Version | Text Only | Print | Product List | Glossary Off
Versions: 1 2 3 4 5 6 7 8 9 10 11 12 13 14 15 16 17 18 19 20 21 22 23

396
FTUS43 KICT 171733
TAFSLN
TAF
KSLN 171733Z 1718/1818 33018G27KT P6SM SKC
     FM172200 33015KT P6SM SKC
     FM180000 02006KT P6SM SKC
     FM180400 15005KT P6SM SKC
     FM180900 16014G20KT P6SM FEW250 WS020/19045KT
     FM181600 19026G36KT P6SM FEW250=

USA.gov is the U.S. government's official web portal to all federal, state and local government web resources and services.